createdAt,value
2023-02-23T00:01:53.990Z,52.50
2023-02-23T00:04:21.056Z,41.75
2023-02-23T00:06:47.883Z,39.25
2023-02-23T00:09:24.756Z,54.25
2023-02-23T00:11:53.625Z,55.00
2023-02-23T00:14:20.680Z,50.75
2023-02-23T00:16:47.425Z,47.75
2023-02-23T00:19:14.238Z,55.50
2023-02-23T00:21:41.903Z,52.50
2023-02-23T00:24:14.800Z,49.75
2023-02-23T00:26:45.414Z,49.25
2023-02-23T00:29:17.524Z,59.50
2023-02-23T00:31:48.877Z,43.75
2023-02-23T00:34:21.094Z,47.50
2023-02-23T00:36:51.517Z,53.25
2023-02-23T00:39:21.675Z,57.75
2023-02-23T00:41:49.371Z,51.50
2023-02-23T00:44:16.107Z,32.00
2023-02-23T00:46:43.772Z,47.00
2023-02-23T00:49:12.843Z,52.00
2023-02-23T00:51:39.828Z,52.00
2023-02-23T00:54:07.898Z,54.00
2023-02-23T00:56:34.912Z,65.25
2023-02-23T00:59:02.015Z,59.50
2023-02-23T01:01:29.017Z,57.25
2023-02-23T01:03:55.772Z,60.75
2023-02-23T01:06:22.908Z,56.25
2023-02-23T01:08:52.291Z,61.25
2023-02-23T01:11:21.937Z,50.25
2023-02-23T01:13:52.153Z,56.75
2023-02-23T01:16:22.641Z,53.75
2023-02-23T01:18:49.585Z,55.50
2023-02-23T01:21:20.695Z,58.75
2023-02-23T01:23:47.966Z,53.75
2023-02-23T01:26:22.967Z,59.25
2023-02-23T01:28:54.302Z,57.50
2023-02-23T01:31:22.839Z,58.50
2023-02-23T01:33:54.682Z,65.25
2023-02-23T01:36:21.456Z,59.75
2023-02-23T01:38:49.277Z,62.50
2023-02-23T01:41:17.301Z,65.25
2023-02-23T01:44:13.461Z,61.75
2023-02-23T01:46:43.139Z,58.25
2023-02-23T01:49:16.099Z,54.25
2023-02-23T01:52:04.242Z,57.00
2023-02-23T01:54:36.348Z,62.00
2023-02-23T01:57:06.265Z,56.00
2023-02-23T01:59:39.909Z,55.00
2023-02-23T02:02:07.760Z,56.50
2023-02-23T02:04:47.104Z,55.25
2023-02-23T02:07:18.099Z,53.75
2023-02-23T02:10:06.527Z,54.00
2023-02-23T02:12:33.873Z,57.25
2023-02-23T02:15:00.976Z,58.25
2023-02-23T02:17:45.216Z,61.50
2023-02-23T02:20:32.626Z,58.75
2023-02-23T02:23:13.890Z,48.25
2023-02-23T02:25:59.390Z,49.50
2023-02-23T02:28:38.520Z,52.50
2023-02-23T02:31:49.709Z,54.50
2023-02-23T02:34:18.250Z,48.00
2023-02-23T02:37:03.651Z,51.50
2023-02-23T02:39:53.708Z,49.00
2023-02-23T02:42:31.901Z,51.00
2023-02-23T02:45:37.432Z,58.25
2023-02-23T02:48:21.580Z,52.00
2023-02-23T02:50:55.572Z,54.25
2023-02-23T02:53:37.417Z,49.75
2023-02-23T02:56:06.814Z,48.00
2023-02-23T02:58:33.951Z,50.50
2023-02-23T03:01:31.877Z,48.00
2023-02-23T03:04:19.157Z,50.00
2023-02-23T03:07:17.892Z,52.25
2023-02-23T03:10:14.978Z,49.25
2023-02-23T03:13:34.337Z,54.25
2023-02-23T03:16:42.053Z,54.00
2023-02-23T03:19:42.740Z,53.50
2023-02-23T03:22:43.217Z,46.25
2023-02-23T03:25:45.834Z,45.50
2023-02-23T03:28:38.421Z,48.25
2023-02-23T03:31:46.037Z,47.75
2023-02-23T03:34:36.524Z,40.50
2023-02-23T03:37:47.137Z,41.00
2023-02-23T03:40:44.269Z,44.50
2023-02-23T03:43:37.889Z,43.25
2023-02-23T03:46:29.205Z,42.00
2023-02-23T03:49:18.989Z,41.25
2023-02-23T03:52:08.143Z,42.00
2023-02-23T03:55:05.659Z,37.75
2023-02-23T03:57:54.484Z,46.00
2023-02-23T04:00:44.713Z,43.75
2023-02-23T04:03:32.259Z,41.75
2023-02-23T04:06:18.134Z,34.25
2023-02-23T04:09:05.549Z,39.00
2023-02-23T04:12:09.347Z,41.75
2023-02-23T04:15:14.241Z,38.00
2023-02-23T04:17:42.252Z,44.75
2023-02-23T04:20:12.788Z,41.50
2023-02-23T04:22:39.800Z,42.25
2023-02-23T04:25:09.101Z,44.50
2023-02-23T04:27:36.411Z,36.00
2023-02-23T04:30:03.889Z,37.75
2023-02-23T04:32:31.060Z,34.25
2023-02-23T04:34:57.703Z,36.00
2023-02-23T04:37:24.589Z,36.50
2023-02-23T04:39:51.202Z,31.75
2023-02-23T04:42:18.448Z,30.25
2023-02-23T04:44:45.399Z,34.50
2023-02-23T04:47:14.459Z,34.75
2023-02-23T04:49:41.052Z,34.50
2023-02-23T04:52:07.651Z,31.25
2023-02-23T04:54:37.292Z,30.25
2023-02-23T04:57:04.089Z,33.00
2023-02-23T04:59:31.557Z,36.50
2023-02-23T05:01:58.415Z,35.75
2023-02-23T05:04:25.123Z,32.00
2023-02-23T05:06:51.789Z,37.25
2023-02-23T05:09:18.363Z,35.00
2023-02-23T05:11:45.022Z,34.25
2023-02-23T05:14:12.536Z,34.75
2023-02-23T05:16:39.564Z,33.50
2023-02-23T05:19:06.472Z,33.25
2023-02-23T05:21:33.080Z,35.00
2023-02-23T05:24:00.346Z,34.50
2023-02-23T05:26:26.973Z,32.25
2023-02-23T05:28:54.986Z,32.50
2023-02-23T05:31:22.058Z,36.75
2023-02-23T05:33:48.937Z,35.75
2023-02-23T05:36:18.096Z,34.75
2023-02-23T05:38:46.490Z,29.00
2023-02-23T05:41:20.675Z,26.25
2023-02-23T05:43:48.527Z,26.25
2023-02-23T05:46:17.916Z,31.50
2023-02-23T05:48:44.568Z,32.00
2023-02-23T05:51:13.435Z,29.75
2023-02-23T05:53:40.877Z,27.75
2023-02-23T05:56:09.122Z,28.50
2023-02-23T05:58:35.753Z,28.75
2023-02-23T06:01:02.430Z,29.00
2023-02-23T06:03:29.530Z,27.50
2023-02-23T06:05:58.055Z,29.50
2023-02-23T06:08:26.060Z,24.25
2023-02-23T06:10:53.433Z,30.50
2023-02-23T06:13:21.474Z,34.50
2023-02-23T06:15:49.517Z,32.75
2023-02-23T06:18:17.668Z,31.50
2023-02-23T06:20:46.070Z,32.75
2023-02-23T06:23:13.545Z,30.75
2023-02-23T06:25:41.116Z,30.50
2023-02-23T06:28:08.713Z,27.25
2023-02-23T06:30:36.019Z,24.75
2023-02-23T06:33:02.737Z,32.75
2023-02-23T06:35:29.417Z,37.00
2023-02-23T06:37:57.040Z,32.50
2023-02-23T06:40:23.642Z,27.50
2023-02-23T06:42:50.553Z,32.25
2023-02-23T06:45:19.250Z,31.25
2023-02-23T06:47:47.228Z,37.00
2023-02-23T06:50:15.056Z,32.75
2023-02-23T06:52:42.092Z,32.75
2023-02-23T06:55:09.554Z,29.75
2023-02-23T06:57:36.337Z,34.00
2023-02-23T07:00:03.781Z,33.25
2023-02-23T07:02:30.393Z,28.75
2023-02-23T07:04:57.089Z,38.50
2023-02-23T07:07:23.711Z,39.75
2023-02-23T07:09:50.367Z,35.50
2023-02-23T07:12:17.472Z,38.50
2023-02-23T07:14:44.090Z,36.50
2023-02-23T07:17:12.671Z,36.00
2023-02-23T07:19:39.683Z,31.50
2023-02-23T07:22:06.268Z,35.25
2023-02-23T07:24:32.892Z,33.50
2023-02-23T07:26:59.560Z,37.00
2023-02-23T07:29:27.709Z,31.00
2023-02-23T07:31:54.784Z,38.25
2023-02-23T07:34:21.811Z,32.00
2023-02-23T07:36:48.560Z,31.75
2023-02-23T07:39:15.233Z,31.25
2023-02-23T07:41:41.887Z,35.25
2023-02-23T07:44:08.589Z,39.50
2023-02-23T07:46:35.194Z,32.75
2023-02-23T07:49:01.850Z,37.00
2023-02-23T07:51:28.548Z,40.75
2023-02-23T07:53:55.384Z,37.00
2023-02-23T07:56:22.274Z,39.75
2023-02-23T07:58:48.871Z,36.00
2023-02-23T08:01:16.113Z,35.50
2023-02-23T08:03:49.879Z,39.00
2023-02-23T08:06:17.583Z,34.75
2023-02-23T08:08:44.554Z,37.25
2023-02-23T08:11:12.006Z,40.50
2023-02-23T08:13:38.954Z,37.75
2023-02-23T08:16:05.753Z,33.00
2023-02-23T08:18:32.661Z,36.25
2023-02-23T08:21:04.941Z,31.50
2023-02-23T08:23:33.680Z,33.75
2023-02-23T08:26:01.627Z,34.00
2023-02-23T08:28:30.494Z,32.25
2023-02-23T08:30:57.675Z,33.50
2023-02-23T08:33:24.422Z,31.00
2023-02-23T08:35:53.651Z,30.50
2023-02-23T08:38:20.526Z,33.25
2023-02-23T08:40:47.355Z,28.50
2023-02-23T08:43:13.932Z,32.25
2023-02-23T08:45:40.540Z,30.00
2023-02-23T08:48:08.900Z,34.00
2023-02-23T08:50:35.619Z,33.50
2023-02-23T08:53:02.428Z,33.50
2023-02-23T08:55:29.042Z,29.50
2023-02-23T08:57:55.601Z,31.00
2023-02-23T09:00:22.753Z,33.00
2023-02-23T09:02:49.439Z,31.75
2023-02-23T09:05:16.933Z,32.50
2023-02-23T09:07:45.269Z,30.25
2023-02-23T09:10:25.008Z,38.50
2023-02-23T09:12:51.875Z,36.25
2023-02-23T09:15:18.633Z,31.75
2023-02-23T09:17:45.761Z,37.00
2023-02-23T09:20:13.910Z,27.00
2023-02-23T09:22:44.743Z,35.50
2023-02-23T09:25:12.871Z,33.50
2023-02-23T09:27:39.478Z,34.75
2023-02-23T09:30:06.556Z,30.50
2023-02-23T09:32:33.250Z,26.25
2023-02-23T09:34:59.925Z,28.00
2023-02-23T09:37:26.545Z,33.25
2023-02-23T09:39:53.154Z,30.00
2023-02-23T09:42:31.271Z,24.00
2023-02-23T09:45:08.254Z,15.00
2023-02-23T09:47:55.500Z,4.25
2023-02-23T09:50:25.642Z,2.75
2023-02-23T09:53:01.478Z,1.50
2023-02-23T09:55:28.893Z,1.25
2023-02-23T09:57:58.045Z,1.00
2023-02-23T10:00:29.523Z,2.00
2023-02-23T10:03:28.203Z,1.00
2023-02-23T10:06:06.440Z,1.75
2023-02-23T10:08:39.620Z,0.00
2023-02-23T10:11:08.823Z,0.00
2023-02-23T10:13:56.054Z,0.00
2023-02-23T10:16:31.951Z,1.00
2023-02-23T10:19:13.773Z,0.75
2023-02-23T10:21:42.979Z,1.00
2023-02-23T10:24:18.384Z,1.00
2023-02-23T10:26:54.318Z,1.25
2023-02-23T10:29:30.208Z,1.00
2023-02-23T10:32:35.248Z,1.00
2023-02-23T10:35:06.437Z,0.25
2023-02-23T10:37:33.069Z,1.00
2023-02-23T10:39:59.784Z,2.00
2023-02-23T10:42:32.055Z,1.00
2023-02-23T10:44:59.494Z,1.00
2023-02-23T10:47:35.625Z,4.00
2023-02-23T10:50:03.639Z,2.00
2023-02-23T10:52:41.586Z,1.00
2023-02-23T10:55:24.352Z,1.00
2023-02-23T10:58:05.561Z,1.00
2023-02-23T11:00:36.967Z,2.00
2023-02-23T11:03:19.137Z,0.00
2023-02-23T11:05:51.403Z,1.00
2023-02-23T11:08:38.175Z,0.50
2023-02-23T11:11:07.043Z,1.00
2023-02-23T11:13:42.893Z,0.00
2023-02-23T11:16:15.502Z,0.75
2023-02-23T11:18:50.869Z,1.00
2023-02-23T11:21:35.808Z,2.50
2023-02-23T11:24:22.544Z,2.00
2023-02-23T11:26:52.748Z,3.00
2023-02-23T11:29:27.152Z,3.75
2023-02-23T11:31:57.637Z,10.00
2023-02-23T11:34:33.208Z,3.00
2023-02-23T11:37:07.118Z,2.50
2023-02-23T11:39:34.440Z,3.00
2023-02-23T11:42:16.048Z,3.00
2023-02-23T11:44:42.890Z,2.75
2023-02-23T11:47:22.608Z,3.00
2023-02-23T11:49:50.828Z,2.75
2023-02-23T11:52:21.910Z,3.25
2023-02-23T11:55:02.151Z,4.00
2023-02-23T11:57:36.532Z,2.00
2023-02-23T12:00:14.221Z,3.00
2023-02-23T12:02:51.933Z,2.00
2023-02-23T12:05:23.591Z,1.00
2023-02-23T12:08:18.626Z,1.00
2023-02-23T12:10:53.487Z,1.00
2023-02-23T12:13:45.345Z,2.25
2023-02-23T12:16:23.396Z,3.00
2023-02-23T12:19:08.883Z,2.00
2023-02-23T12:21:50.767Z,2.00
2023-02-23T12:24:37.618Z,2.00
2023-02-23T12:27:04.259Z,2.75
2023-02-23T12:29:43.847Z,3.00
2023-02-23T12:32:19.229Z,2.00
2023-02-23T12:34:54.923Z,2.00
2023-02-23T12:37:21.523Z,2.00
2023-02-23T12:39:53.231Z,3.00
2023-02-23T12:42:30.986Z,3.00
2023-02-23T12:45:04.433Z,2.50
2023-02-23T12:47:40.570Z,3.00
2023-02-23T12:50:25.028Z,2.00
2023-02-23T12:52:57.795Z,2.00
2023-02-23T12:55:43.018Z,1.50
2023-02-23T12:58:30.983Z,2.00
2023-02-23T13:01:06.015Z,3.00
2023-02-23T13:04:30.564Z,2.75
2023-02-23T13:07:21.733Z,4.00
2023-02-23T13:10:00.648Z,4.00
2023-02-23T13:12:43.970Z,3.00
2023-02-23T13:15:26.947Z,3.75
2023-02-23T13:18:03.905Z,2.75
2023-02-23T13:20:37.415Z,3.00
2023-02-23T13:23:36.080Z,6.25
2023-02-23T13:26:19.130Z,3.25
2023-02-23T13:29:04.582Z,3.00
2023-02-23T13:31:39.654Z,5.00
2023-02-23T13:34:11.882Z,5.00
2023-02-23T13:36:40.790Z,5.00
2023-02-23T13:39:35.297Z,7.00
2023-02-23T13:42:20.250Z,5.75
2023-02-23T13:45:13.132Z,8.25
2023-02-23T13:47:39.744Z,7.00
2023-02-23T13:50:37.817Z,6.00
2023-02-23T13:53:08.420Z,6.50
2023-02-23T13:55:50.024Z,2.00
2023-02-23T13:58:25.681Z,5.25
2023-02-23T14:01:18.750Z,11.00
2023-02-23T14:03:53.689Z,8.75
2023-02-23T14:06:22.845Z,7.25
2023-02-23T14:09:00.921Z,7.00
2023-02-23T14:11:41.302Z,7.25
2023-02-23T14:14:13.366Z,6.00
2023-02-23T14:16:40.236Z,7.00
2023-02-23T14:19:12.023Z,5.00
2023-02-23T14:21:49.849Z,7.00
2023-02-23T14:24:25.128Z,6.00
2023-02-23T14:27:03.442Z,10.00
2023-02-23T14:29:32.123Z,15.00
2023-02-23T14:32:04.098Z,6.50
2023-02-23T14:34:47.987Z,5.75
2023-02-23T14:37:22.015Z,6.25
2023-02-23T14:39:50.991Z,6.00
2023-02-23T14:42:29.900Z,6.75
2023-02-23T14:45:02.757Z,8.50
2023-02-23T14:47:29.423Z,8.50
2023-02-23T14:50:01.548Z,6.00
2023-02-23T14:52:32.453Z,4.00
2023-02-23T14:55:11.101Z,4.50
2023-02-23T14:57:40.840Z,5.00
2023-02-23T15:00:23.579Z,5.50
2023-02-23T15:03:12.810Z,4.75
2023-02-23T15:05:45.063Z,5.75
2023-02-23T15:08:23.236Z,5.00
2023-02-23T15:10:59.783Z,5.00
2023-02-23T15:13:39.770Z,4.50
2023-02-23T15:16:27.870Z,4.50
2023-02-23T15:19:33.442Z,4.00
2023-02-23T15:22:03.244Z,3.75
2023-02-23T15:24:42.341Z,5.00
2023-02-23T15:27:22.768Z,5.00
2023-02-23T15:29:50.423Z,7.25
2023-02-23T15:32:23.612Z,5.50
2023-02-23T15:34:53.081Z,7.00
2023-02-23T15:37:40.350Z,7.00
2023-02-23T15:40:16.694Z,7.25
2023-02-23T15:42:49.826Z,8.50
2023-02-23T15:45:30.276Z,9.25
2023-02-23T15:47:59.626Z,7.50
2023-02-23T15:50:37.214Z,10.50
2023-02-23T15:53:29.163Z,8.75
2023-02-23T15:56:01.022Z,18.00
2023-02-23T15:58:41.822Z,18.75
2023-02-23T16:01:42.927Z,25.25
2023-02-23T16:04:12.507Z,24.00
2023-02-23T16:06:53.268Z,34.50
2023-02-23T16:09:24.173Z,56.25
2023-02-23T16:11:54.778Z,49.75
2023-02-23T16:14:23.569Z,36.00
2023-02-23T16:17:08.403Z,24.25
2023-02-23T16:19:40.841Z,12.25
2023-02-23T16:22:19.510Z,10.75
2023-02-23T16:24:54.075Z,9.75
2023-02-23T16:27:22.257Z,15.50
2023-02-23T16:30:00.211Z,16.00
2023-02-23T16:32:37.455Z,16.75
2023-02-23T16:35:17.916Z,17.25
2023-02-23T16:38:02.601Z,15.75
2023-02-23T16:40:29.564Z,13.75
2023-02-23T16:42:59.491Z,14.00
2023-02-23T16:45:27.338Z,14.00
2023-02-23T16:47:54.049Z,14.75
2023-02-23T16:50:24.242Z,13.75
2023-02-23T16:52:53.046Z,13.00
2023-02-23T16:55:28.338Z,16.25
2023-02-23T16:58:01.257Z,13.00
2023-02-23T17:00:31.104Z,15.25
2023-02-23T17:02:58.667Z,11.00
2023-02-23T17:05:25.457Z,11.00
2023-02-23T17:07:52.996Z,14.50
2023-02-23T17:10:25.197Z,13.50
2023-02-23T17:13:12.781Z,16.00
2023-02-23T17:15:48.093Z,8.00
2023-02-23T17:18:15.021Z,10.00
2023-02-23T17:20:41.660Z,10.00
2023-02-23T17:23:08.335Z,12.75
2023-02-23T17:25:35.295Z,10.25
2023-02-23T17:28:02.517Z,13.75
2023-02-23T17:30:30.565Z,14.75
2023-02-23T17:32:59.058Z,14.50
2023-02-23T17:35:26.110Z,16.50
2023-02-23T17:37:54.085Z,18.25
2023-02-23T17:40:29.393Z,18.75
2023-02-23T17:42:57.755Z,18.75
2023-02-23T17:45:25.126Z,19.25
2023-02-23T17:47:52.095Z,25.75
2023-02-23T17:50:22.671Z,23.50
2023-02-23T17:52:50.859Z,23.00
2023-02-23T17:55:19.010Z,22.75
2023-02-23T17:57:46.278Z,22.00
2023-02-23T18:00:15.434Z,31.25
2023-02-23T18:02:44.819Z,26.25
2023-02-23T18:05:13.581Z,27.75
2023-02-23T18:07:40.346Z,21.50
2023-02-23T18:10:07.891Z,27.00
2023-02-23T18:12:34.830Z,46.75
2023-02-23T18:15:01.514Z,22.25
2023-02-23T18:17:28.157Z,28.75
2023-02-23T18:19:54.784Z,31.50
2023-02-23T18:22:21.875Z,26.00
2023-02-23T18:24:57.315Z,23.75
2023-02-23T18:27:26.257Z,23.25
2023-02-23T18:29:52.865Z,21.75
2023-02-23T18:32:19.633Z,23.25
2023-02-23T18:34:46.417Z,25.00
2023-02-23T18:37:13.019Z,5.50
2023-02-23T18:39:39.639Z,32.50
2023-02-23T18:42:06.398Z,31.50
2023-02-23T18:44:35.181Z,27.75
2023-02-23T18:47:02.538Z,29.75
2023-02-23T18:49:29.198Z,24.00
2023-02-23T18:51:55.886Z,17.00
2023-02-23T18:54:22.545Z,22.00
2023-02-23T18:56:49.409Z,29.00
2023-02-23T18:59:16.328Z,26.00
2023-02-23T19:01:45.406Z,23.00
2023-02-23T19:04:12.653Z,31.50
2023-02-23T19:06:42.825Z,23.75
2023-02-23T19:09:15.315Z,24.00
2023-02-23T19:11:43.005Z,25.00
2023-02-23T19:14:16.080Z,22.75
2023-02-23T19:16:43.950Z,24.25
2023-02-23T19:19:10.856Z,22.50
2023-02-23T19:21:37.570Z,25.50
2023-02-23T19:24:06.231Z,27.50
2023-02-23T19:26:37.546Z,22.00
2023-02-23T19:29:04.957Z,24.75
2023-02-23T19:31:31.954Z,23.25
2023-02-23T19:33:59.745Z,44.50
2023-02-23T19:36:30.809Z,44.25
2023-02-23T19:39:10.643Z,39.50
2023-02-23T19:41:39.142Z,39.25
2023-02-23T19:44:05.971Z,38.25
2023-02-23T19:46:33.305Z,39.75
2023-02-23T19:49:00.104Z,36.50
2023-02-23T19:51:27.118Z,29.00
2023-02-23T19:53:55.292Z,28.75
2023-02-23T19:56:24.844Z,37.25
2023-02-23T19:58:52.313Z,28.00
2023-02-23T20:01:21.889Z,23.75
2023-02-23T20:03:56.798Z,27.50
2023-02-23T20:06:25.525Z,26.25
2023-02-23T20:08:52.699Z,27.50
2023-02-23T20:11:20.107Z,25.75
2023-02-23T20:13:46.974Z,21.50
2023-02-23T20:16:14.999Z,23.00
2023-02-23T20:18:42.619Z,22.25
2023-02-23T20:21:13.681Z,24.75
2023-02-23T20:23:41.559Z,25.75
2023-02-23T20:26:11.523Z,26.75
2023-02-23T20:28:38.476Z,15.50
2023-02-23T20:31:14.660Z,13.25
2023-02-23T20:33:41.498Z,12.25
2023-02-23T20:36:08.599Z,14.00
2023-02-23T20:38:35.187Z,12.00
2023-02-23T20:41:04.211Z,11.75
2023-02-23T20:43:31.344Z,11.00
2023-02-23T20:46:02.897Z,9.25
2023-02-23T20:48:31.102Z,10.75
2023-02-23T20:50:58.692Z,11.75
2023-02-23T20:53:26.293Z,10.50
2023-02-23T20:55:54.127Z,15.00
2023-02-23T20:58:26.408Z,14.50
2023-02-23T21:00:54.773Z,17.75
2023-02-23T21:03:22.014Z,10.00
2023-02-23T21:05:49.269Z,14.50
2023-02-23T21:08:16.056Z,12.00
2023-02-23T21:10:42.870Z,14.00
2023-02-23T21:13:12.386Z,11.50
2023-02-23T21:15:40.817Z,10.25
2023-02-23T21:18:08.333Z,7.50
2023-02-23T21:20:38.023Z,13.00
2023-02-23T21:23:04.903Z,12.00
2023-02-23T21:25:34.943Z,12.25
2023-02-23T21:28:02.026Z,10.25
2023-02-23T21:30:29.116Z,9.25
2023-02-23T21:32:57.185Z,8.00
2023-02-23T21:35:23.998Z,7.75
2023-02-23T21:37:51.958Z,9.00
2023-02-23T21:40:23.381Z,11.25
2023-02-23T21:42:50.799Z,12.00
2023-02-23T21:45:18.293Z,9.00
2023-02-23T21:47:46.037Z,9.75
2023-02-23T21:50:16.122Z,10.50
2023-02-23T21:52:45.548Z,8.50
2023-02-23T21:55:21.227Z,7.00
2023-02-23T21:57:49.154Z,7.00
2023-02-23T22:00:16.427Z,9.50
2023-02-23T22:02:46.422Z,5.00
2023-02-23T22:05:15.576Z,5.25
2023-02-23T22:07:48.150Z,6.00
2023-02-23T22:10:15.792Z,5.25
2023-02-23T22:12:42.368Z,6.50
2023-02-23T22:15:10.456Z,5.50
2023-02-23T22:17:38.670Z,5.25
2023-02-23T22:20:07.321Z,6.00
2023-02-23T22:22:36.235Z,3.00
2023-02-23T22:25:07.811Z,4.50
2023-02-23T22:27:34.596Z,4.00
2023-02-23T22:30:01.904Z,3.50
2023-02-23T22:32:32.926Z,3.50
2023-02-23T22:35:00.500Z,4.00
2023-02-23T22:37:31.745Z,5.00
2023-02-23T22:40:00.249Z,5.00
2023-02-23T22:42:29.773Z,3.25
2023-02-23T22:44:57.089Z,4.00
2023-02-23T22:47:24.426Z,3.00
2023-02-23T22:49:50.990Z,3.00
2023-02-23T22:52:17.772Z,5.00
2023-02-23T22:54:45.602Z,4.00
2023-02-23T22:57:13.385Z,5.00
2023-02-23T22:59:39.997Z,3.75
2023-02-23T23:02:06.800Z,2.00
2023-02-23T23:04:34.492Z,3.25
2023-02-23T23:07:01.487Z,6.00
2023-02-23T23:09:28.349Z,2.50
2023-02-23T23:11:56.759Z,3.50
2023-02-23T23:14:23.509Z,4.75
2023-02-23T23:16:50.309Z,4.00
2023-02-23T23:19:23.811Z,3.00
2023-02-23T23:21:56.129Z,5.75
2023-02-23T23:24:23.912Z,4.50
2023-02-23T23:26:55.594Z,5.75
2023-02-23T23:29:23.678Z,3.75
2023-02-23T23:31:51.755Z,4.25
2023-02-23T23:34:21.759Z,2.50
2023-02-23T23:36:49.911Z,4.50
2023-02-23T23:39:18.446Z,5.00
2023-02-23T23:41:48.572Z,6.00
2023-02-23T23:44:20.875Z,4.00
2023-02-23T23:46:50.740Z,3.00
2023-02-23T23:49:19.764Z,5.75
2023-02-23T23:51:50.155Z,3.00
2023-02-23T23:54:22.758Z,4.00
2023-02-23T23:56:50.170Z,3.00
2023-02-23T23:59:21.497Z,4.00
